Time;durP1;ratioP1;P1;durP2;ratioP2;P2;SDS_P1;SDS_P2;PMS_P1;PMS_P2;Temp;Humidity;BMP_temperature;BMP_pressure;BME280_temperature;BME280_humidity;BME280_pressure;Samples;Min_cycle;Max_cycle;Signal;HPM_P1;HPM_P2
2021/01/06 00:01:47;;;;;;;18.50;6.87;;;2.90;99.90;;;;;;1984986;72;21156;-73
2021/01/06 00:04:13;;;;;;;14.80;6.45;;;2.90;99.90;;;;;;1972455;72;21055;-73
2021/01/06 00:06:39;;;;;;;13.95;6.60;;;2.90;99.90;;;;;;1976236;72;21040;-73
2021/01/06 00:09:05;;;;;;;12.75;7.12;;;2.90;99.90;;;;;;1976622;72;21167;-73
2021/01/06 00:11:31;;;;;;;9.20;5.90;;;3.00;99.90;;;;;;1969293;72;21055;-74
2021/01/06 00:13:57;;;;;;;10.35;6.40;;;2.90;99.90;;;;;;1980962;72;21043;-73
2021/01/06 00:16:23;;;;;;;11.83;5.65;;;3.00;99.90;;;;;;1974545;72;21059;-72
2021/01/06 00:18:51;;;;;;;12.43;6.55;;;3.00;99.90;;;;;;1975850;72;21129;-73
2021/01/06 00:21:17;;;;;;;13.98;6.60;;;2.90;99.90;;;;;;1975885;72;21063;-74
2021/01/06 00:23:43;;;;;;;11.95;5.67;;;2.90;99.90;;;;;;1973545;72;21055;-74
2021/01/06 00:26:10;;;;;;;12.70;6.17;;;2.90;99.90;;;;;;1974743;72;21116;-73
2021/01/06 00:28:36;;;;;;;13.62;6.37;;;2.90;99.90;;;;;;1991696;72;21156;-73
2021/01/06 00:31:02;;;;;;;13.85;6.35;;;2.80;99.90;;;;;;1991583;72;21055;-73
2021/01/06 00:33:28;;;;;;;10.68;6.50;;;2.80;99.90;;;;;;1975825;72;21058;-73
2021/01/06 00:35:54;;;;;;;9.00;5.47;;;2.80;99.90;;;;;;1985098;72;21039;-73
2021/01/06 00:38:20;;;;;;;10.60;6.33;;;2.90;99.90;;;;;;1977488;72;21120;-73
2021/01/06 00:40:46;;;;;;;15.50;6.42;;;2.90;99.90;;;;;;1974618;72;21439;-74
2021/01/06 00:43:13;;;;;;;11.55;5.80;;;2.80;99.90;;;;;;1965180;72;21473;-74
2021/01/06 00:45:39;;;;;;;14.87;6.70;;;2.80;99.90;;;;;;1963790;72;21058;-73
2021/01/06 00:48:05;;;;;;;10.48;5.97;;;2.70;99.90;;;;;;1975974;72;21167;-73
2021/01/06 00:50:32;;;;;;;10.53;5.97;;;2.80;99.90;;;;;;1974615;72;21572;-73
2021/01/06 00:52:58;;;;;;;16.75;7.30;;;2.80;99.90;;;;;;1974666;73;21487;-74
2021/01/06 00:55:24;;;;;;;11.75;6.40;;;2.80;99.90;;;;;;1974576;72;21032;-71
2021/01/06 00:57:51;;;;;;;10.03;6.25;;;2.80;99.90;;;;;;1977715;72;21059;-73
2021/01/06 01:00:17;;;;;;;8.73;5.53;;;2.80;99.90;;;;;;1970931;72;21071;-73
2021/01/06 01:02:45;;;;;;;10.43;6.53;;;2.80;99.90;;;;;;1974534;72;21067;-73
2021/01/06 01:05:11;;;;;;;9.85;6.40;;;2.70;99.90;;;;;;1971497;72;21100;-73
2021/01/06 01:07:39;;;;;;;7.80;5.72;;;2.70;99.90;;;;;;1970773;72;21113;-73
2021/01/06 01:10:05;;;;;;;10.08;6.12;;;2.70;99.90;;;;;;1974677;73;21095;-73
2021/01/06 01:12:31;;;;;;;10.82;6.15;;;2.70;99.90;;;;;;1977812;72;21056;-73
2021/01/06 01:14:57;;;;;;;9.20;6.22;;;2.80;99.90;;;;;;1970913;72;21063;-73
2021/01/06 01:17:23;;;;;;;10.13;6.47;;;2.70;99.90;;;;;;1977931;72;21019;-73
2021/01/06 01:19:49;;;;;;;10.30;5.97;;;2.60;99.90;;;;;;1985098;72;21066;-73
2021/01/06 01:22:16;;;;;;;12.85;5.75;;;2.60;99.90;;;;;;1977035;72;21471;-73
2021/01/06 01:24:42;;;;;;;20.70;7.33;;;2.70;99.90;;;;;;1982711;72;21532;-74
2021/01/06 01:27:08;;;;;;;11.60;6.40;;;2.60;99.90;;;;;;1974511;72;21490;-73
2021/01/06 01:29:34;;;;;;;12.63;6.85;;;2.60;99.90;;;;;;1965332;72;21028;-73
2021/01/06 01:32:00;;;;;;;9.73;5.78;;;2.60;99.90;;;;;;1971256;72;21059;-73
2021/01/06 01:34:26;;;;;;;11.00;5.40;;;2.70;99.90;;;;;;1974611;72;21062;-73
2021/01/06 01:36:52;;;;;;;8.50;5.50;;;2.60;99.90;;;;;;1974556;73;21039;-73
2021/01/06 01:39:19;;;;;;;12.85;6.15;;;2.60;99.90;;;;;;1971079;72;21151;-72
2021/01/06 01:41:45;;;;;;;12.50;6.85;;;2.60;99.90;;;;;;1974685;72;21150;-73
2021/01/06 01:44:11;;;;;;;11.88;6.17;;;2.50;99.90;;;;;;1974516;72;21066;-73
2021/01/06 01:46:37;;;;;;;9.00;6.22;;;2.50;99.90;;;;;;1964632;72;21642;-74
2021/01/06 01:49:03;;;;;;;12.18;5.75;;;2.60;99.90;;;;;;1980572;72;21444;-71
2021/01/06 01:51:29;;;;;;;9.88;6.28;;;2.70;99.90;;;;;;1974648;73;21472;-71
2021/01/06 01:54:01;;;;;;;17.37;6.60;;;2.60;99.90;;;;;;1974661;73;21090;-73
2021/01/06 01:56:23;;;;;;;10.65;6.72;;;2.60;99.90;;;;;;1976899;72;21133;-73
2021/01/06 01:58:49;;;;;;;17.00;6.62;;;2.50;99.90;;;;;;1976861;72;21494;-73
2021/01/06 02:01:15;;;;;;;10.65;6.75;;;2.50;99.90;;;;;;1986269;72;21526;-73
2021/01/06 02:03:41;;;;;;;10.50;6.37;;;2.50;99.90;;;;;;1964341;72;21450;-74
2021/01/06 02:06:08;;;;;;;12.20;6.62;;;2.50;99.90;;;;;;1968571;72;21487;-73
2021/01/06 02:08:34;;;;;;;10.50;6.70;;;2.50;99.90;;;;;;1972786;72;21123;-73
2021/01/06 02:11:00;;;;;;;10.32;6.10;;;2.50;99.90;;;;;;1972791;72;21094;-73
2021/01/06 02:13:26;;;;;;;9.00;6.17;;;2.60;99.90;;;;;;1977694;72;21102;-73
2021/01/06 02:15:52;;;;;;;8.65;5.80;;;2.50;99.90;;;;;;1970845;72;21054;-73
2021/01/06 02:18:18;;;;;;;8.20;5.47;;;2.50;99.90;;;;;;1971264;72;21040;-74
2021/01/06 02:20:44;;;;;;;11.40;6.72;;;2.40;99.90;;;;;;1970456;72;21051;-73
2021/01/06 02:23:10;;;;;;;9.70;6.33;;;2.40;99.90;;;;;;1974085;72;21098;-74
2021/01/06 02:25:39;;;;;;;11.90;6.25;;;2.40;99.90;;;;;;1974823;72;21052;-72
2021/01/06 02:28:04;;;;;;;12.63;7.05;;;2.40;99.90;;;;;;1971116;72;21092;-73
2021/01/06 02:30:30;;;;;;;10.72;6.42;;;2.50;99.90;;;;;;1974634;72;21113;-73
2021/01/06 02:32:57;;;;;;;10.25;5.80;;;2.40;99.90;;;;;;1974720;72;21081;-73
2021/01/06 02:35:23;;;;;;;13.13;6.83;;;2.40;99.90;;;;;;1970298;72;21067;-73
2021/01/06 02:37:49;;;;;;;19.37;6.58;;;2.40;99.90;;;;;;1982468;72;21150;-73
2021/01/06 02:40:15;;;;;;;14.07;7.12;;;2.40;99.90;;;;;;1979176;72;21534;-74
2021/01/06 02:42:41;;;;;;;12.80;7.17;;;2.30;99.90;;;;;;1983852;72;21067;-74
2021/01/06 02:45:08;;;;;;;10.65;6.80;;;2.40;99.90;;;;;;1974298;72;21062;-74
2021/01/06 02:47:34;;;;;;;14.60;7.20;;;2.40;99.90;;;;;;1980605;72;21052;-74
2021/01/06 02:50:00;;;;;;;10.72;6.37;;;2.40;99.90;;;;;;1974417;72;21052;-74
2021/01/06 02:52:26;;;;;;;13.45;6.65;;;2.40;99.90;;;;;;1982308;72;21105;-74
2021/01/06 02:54:52;;;;;;;9.80;6.45;;;2.40;99.90;;;;;;1975707;72;21119;-74
2021/01/06 02:57:18;;;;;;;15.20;7.33;;;2.40;99.90;;;;;;1980611;72;21117;-74
2021/01/06 02:59:44;;;;;;;13.83;6.55;;;2.40;99.90;;;;;;1980383;72;21067;-74
2021/01/06 03:02:10;;;;;;;11.35;6.72;;;2.20;99.90;;;;;;1969450;72;21435;-72
2021/01/06 03:04:37;;;;;;;15.03;6.75;;;2.30;99.90;;;;;;1979615;72;21576;-74
2021/01/06 03:07:03;;;;;;;12.63;6.33;;;2.20;99.90;;;;;;1974557;72;21416;-74
2021/01/06 03:09:29;;;;;;;15.08;5.58;;;2.20;99.90;;;;;;1971286;72;21546;-73
2021/01/06 03:11:55;;;;;;;13.95;7.35;;;2.30;99.90;;;;;;1967152;72;21136;-74
2021/01/06 03:14:21;;;;;;;12.50;7.10;;;2.20;99.90;;;;;;1974587;73;21012;-73
2021/01/06 03:16:47;;;;;;;11.12;6.65;;;2.20;99.90;;;;;;1960026;72;21067;-73
2021/01/06 03:19:13;;;;;;;12.30;6.83;;;2.20;99.90;;;;;;1970282;72;21113;-73
2021/01/06 03:21:39;;;;;;;13.20;6.87;;;2.30;99.90;;;;;;1969198;72;21035;-73
2021/01/06 03:24:05;;;;;;;15.08;7.35;;;2.10;99.90;;;;;;1972765;72;21114;-73
2021/01/06 03:26:32;;;;;;;12.07;6.10;;;2.10;99.90;;;;;;1972217;72;21088;-73
2021/01/06 03:28:58;;;;;;;11.97;6.62;;;2.00;99.90;;;;;;1975948;72;21124;-73
2021/01/06 03:31:24;;;;;;;10.13;6.35;;;2.10;99.90;;;;;;1970740;72;21051;-72
2021/01/06 03:33:50;;;;;;;9.73;5.87;;;2.10;99.90;;;;;;1974938;72;21071;-73
2021/01/06 03:36:16;;;;;;;11.88;5.62;;;2.10;99.90;;;;;;1973389;72;21086;-74
2021/01/06 03:38:42;;;;;;;13.13;5.37;;;2.10;99.90;;;;;;1976298;72;21063;-73
2021/01/06 03:41:08;;;;;;;11.25;5.85;;;2.20;99.90;;;;;;1972653;72;21657;-73
2021/01/06 03:43:34;;;;;;;12.60;6.03;;;2.20;99.90;;;;;;1980489;72;21495;-74
2021/01/06 03:46:01;;;;;;;8.00;5.15;;;2.10;99.90;;;;;;1974525;72;21478;-73
2021/01/06 03:48:27;;;;;;;7.15;4.80;;;2.10;99.90;;;;;;1977196;72;21071;-72
2021/01/06 03:50:53;;;;;;;7.33;4.97;;;2.10;99.90;;;;;;1974594;73;21056;-73
2021/01/06 03:53:19;;;;;;;11.05;5.83;;;2.10;99.90;;;;;;1971184;72;21060;-73
2021/01/06 03:55:47;;;;;;;8.58;5.37;;;1.90;99.90;;;;;;1983880;72;21180;-72
2021/01/06 03:58:13;;;;;;;9.98;5.97;;;1.90;99.90;;;;;;1972461;72;21061;-73
2021/01/06 04:00:39;;;;;;;12.98;5.87;;;2.00;99.90;;;;;;1979157;72;21067;-73
2021/01/06 04:03:05;;;;;;;10.10;6.05;;;1.90;99.90;;;;;;1974412;72;21133;-74
2021/01/06 04:05:31;;;;;;;10.05;5.55;;;1.90;99.90;;;;;;1963864;72;21063;-73
2021/01/06 04:07:57;;;;;;;8.78;5.50;;;1.80;99.90;;;;;;1974650;73;21067;-74
2021/01/06 04:10:23;;;;;;;11.60;6.17;;;1.70;99.90;;;;;;1972792;72;21459;-74
2021/01/06 04:12:49;;;;;;;9.78;5.53;;;1.70;99.90;;;;;;1972104;72;21488;-73
2021/01/06 04:15:16;;;;;;;9.18;5.03;;;1.70;99.90;;;;;;1974551;73;21508;-73
2021/01/06 04:17:42;;;;;;;7.12;5.30;;;1.70;99.90;;;;;;1974523;73;21047;-72
2021/01/06 04:20:08;;;;;;;9.03;5.33;;;1.60;99.90;;;;;;1971872;72;21062;-73
2021/01/06 04:22:34;;;;;;;9.80;5.60;;;1.60;99.90;;;;;;1974594;72;21057;-74
2021/01/06 04:25:00;;;;;;;11.88;5.50;;;1.60;99.90;;;;;;1977904;72;21062;-73
2021/01/06 04:27:26;;;;;;;9.98;5.40;;;1.60;99.90;;;;;;1974473;72;21099;-73
2021/01/06 04:29:52;;;;;;;9.48;5.83;;;1.60;99.90;;;;;;1966546;72;21051;-74
2021/01/06 04:32:18;;;;;;;10.18;5.53;;;1.70;99.90;;;;;;1989247;72;21023;-74
2021/01/06 04:34:45;;;;;;;10.98;6.42;;;1.70;99.90;;;;;;1968843;72;21059;-73
2021/01/06 04:37:11;;;;;;;10.90;6.15;;;1.70;99.90;;;;;;1974659;73;21105;-74
2021/01/06 04:39:37;;;;;;;11.12;7.00;;;1.70;99.90;;;;;;1970856;72;21063;-73
2021/01/06 04:42:03;;;;;;;10.05;5.65;;;1.50;99.90;;;;;;1976406;72;21067;-73
2021/01/06 04:44:31;;;;;;;11.25;5.60;;;1.50;99.90;;;;;;1974447;72;21146;-74
2021/01/06 04:46:57;;;;;;;9.23;5.67;;;1.50;99.90;;;;;;1971075;72;21035;-73
2021/01/06 04:49:23;;;;;;;10.58;6.30;;;1.60;99.90;;;;;;1969659;72;21055;-73
2021/01/06 04:51:49;;;;;;;12.85;6.72;;;1.50;99.90;;;;;;1985308;72;21050;-73
2021/01/06 04:54:15;;;;;;;11.20;6.65;;;1.60;99.90;;;;;;1976519;72;21059;-73
2021/01/06 04:56:41;;;;;;;11.03;6.10;;;1.60;99.90;;;;;;1981317;72;21063;-72
2021/01/06 04:59:07;;;;;;;10.70;6.08;;;1.50;99.90;;;;;;1984547;72;21485;-74
2021/01/06 05:01:34;;;;;;;13.98;6.65;;;1.60;99.90;;;;;;1975590;72;21385;-73
2021/01/06 05:04:00;;;;;;;8.75;5.90;;;1.70;99.90;;;;;;1973940;72;21495;-73
2021/01/06 05:06:26;;;;;;;8.68;5.95;;;1.70;99.90;;;;;;1965568;72;21061;-73
2021/01/06 05:08:52;;;;;;;12.43;5.72;;;1.60;99.90;;;;;;1985410;72;21043;-73
2021/01/06 05:11:18;;;;;;;10.08;5.90;;;1.70;99.90;;;;;;1990803;72;21058;-73
2021/01/06 05:13:44;;;;;;;16.12;5.42;;;1.70;99.90;;;;;;1970337;72;21063;-73
2021/01/06 05:16:11;;;;;;;10.82;5.65;;;1.70;99.90;;;;;;1967531;72;21058;-73
2021/01/06 05:18:37;;;;;;;9.50;5.75;;;1.70;99.90;;;;;;1981538;72;21035;-73
2021/01/06 05:21:06;;;;;;;12.58;6.37;;;1.60;99.90;;;;;;1963859;72;21496;-74
2021/01/06 05:23:31;;;;;;;9.88;5.78;;;1.70;99.90;;;;;;1966754;72;21070;-74
2021/01/06 05:25:57;;;;;;;7.87;5.35;;;1.70;99.90;;;;;;1980141;72;21125;-75
2021/01/06 05:28:23;;;;;;;7.95;5.33;;;1.80;99.90;;;;;;1976091;72;21071;-74
2021/01/06 05:30:49;;;;;;;12.78;5.12;;;1.70;99.90;;;;;;1978797;72;21141;-73
2021/01/06 05:33:15;;;;;;;13.85;6.10;;;1.80;99.90;;;;;;1971856;72;21063;-74
2021/01/06 05:35:41;;;;;;;9.85;5.95;;;1.80;99.90;;;;;;1974016;73;21478;-73
2021/01/06 05:38:07;;;;;;;9.45;5.37;;;1.80;99.90;;;;;;1966956;72;21473;-74
2021/01/06 05:40:33;;;;;;;6.75;5.12;;;1.80;99.90;;;;;;1980468;72;21444;-73
2021/01/06 05:43:00;;;;;;;7.42;5.50;;;1.70;99.90;;;;;;1973600;72;21052;-74
2021/01/06 05:45:28;;;;;;;12.03;5.70;;;1.80;99.90;;;;;;1967925;72;21176;-74
2021/01/06 05:47:55;;;;;;;10.03;5.05;;;1.80;99.90;;;;;;1968032;72;21046;-75
2021/01/06 05:50:21;;;;;;;12.28;6.20;;;1.80;99.90;;;;;;1968514;72;21055;-73
2021/01/06 05:52:47;;;;;;;9.73;5.78;;;1.80;99.90;;;;;;1973454;72;21128;-74
2021/01/06 05:55:13;;;;;;;9.03;5.40;;;1.80;99.90;;;;;;1969427;72;21054;-75
2021/01/06 05:57:39;;;;;;;11.60;5.72;;;1.80;99.90;;;;;;1971415;72;21059;-74
2021/01/06 06:00:05;;;;;;;9.45;5.60;;;1.70;99.90;;;;;;1973933;72;21125;-74
2021/01/06 06:02:31;;;;;;;11.43;5.62;;;1.70;99.90;;;;;;1973919;72;21025;-74
2021/01/06 06:04:57;;;;;;;12.40;5.35;;;1.60;99.90;;;;;;1973831;72;21055;-74
2021/01/06 06:07:24;;;;;;;11.57;5.72;;;1.60;99.90;;;;;;1970138;72;21054;-74
2021/01/06 06:09:50;;;;;;;11.35;6.65;;;1.70;99.90;;;;;;1984816;72;21114;-75
2021/01/06 06:12:16;;;;;;;17.92;6.20;;;1.70;99.90;;;;;;1971404;72;21114;-74
2021/01/06 06:14:42;;;;;;;14.93;6.40;;;1.70;99.90;;;;;;1973939;73;21177;-74
2021/01/06 06:17:08;;;;;;;13.40;6.70;;;1.70;99.90;;;;;;1973909;72;21032;-75
2021/01/06 06:19:34;;;;;;;11.48;5.90;;;1.80;99.90;;;;;;1978273;72;21537;-74
2021/01/06 06:22:00;;;;;;;7.75;5.22;;;1.80;99.90;;;;;;1971681;72;21615;-74
2021/01/06 06:24:26;;;;;;;12.50;6.25;;;1.70;99.90;;;;;;1971183;72;21271;-75
2021/01/06 06:26:52;;;;;;;14.15;6.08;;;1.70;99.90;;;;;;1969384;72;21130;-75
2021/01/06 06:29:20;;;;;;;11.73;6.40;;;1.70;99.90;;;;;;1973814;72;21067;-75
2021/01/06 06:31:46;;;;;;;8.33;5.78;;;1.80;99.90;;;;;;1973871;72;21472;-75
2021/01/06 06:34:13;;;;;;;11.38;5.70;;;1.80;99.90;;;;;;1980624;72;21478;-73
2021/01/06 06:36:39;;;;;;;11.05;6.03;;;1.80;99.90;;;;;;1976838;72;21537;-75
2021/01/06 06:39:05;;;;;;;10.32;6.17;;;1.80;99.90;;;;;;1973868;72;21059;-74
2021/01/06 06:41:31;;;;;;;11.18;5.83;;;1.80;99.90;;;;;;1970222;72;21063;-75
2021/01/06 06:43:57;;;;;;;14.45;5.80;;;1.80;99.90;;;;;;1970600;72;21060;-75
2021/01/06 06:46:23;;;;;;;9.60;5.35;;;1.80;99.90;;;;;;1976104;72;21039;-73
2021/01/06 06:48:49;;;;;;;9.38;5.15;;;1.80;99.90;;;;;;1973878;72;21051;-75
2021/01/06 06:51:15;;;;;;;9.73;5.80;;;1.70;99.90;;;;;;1974109;73;21097;-75
2021/01/06 06:53:42;;;;;;;7.45;5.42;;;1.70;99.90;;;;;;1971260;72;21047;-75
2021/01/06 06:56:08;;;;;;;14.10;5.58;;;1.70;99.90;;;;;;1970198;72;21054;-75
2021/01/06 06:58:34;;;;;;;6.58;4.87;;;1.70;99.90;;;;;;1971864;72;21475;-75
2021/01/06 07:01:00;;;;;;;8.20;5.08;;;1.70;99.90;;;;;;1973977;73;21532;-75
2021/01/06 07:03:26;;;;;;;15.83;5.78;;;1.70;99.90;;;;;;1974011;72;21103;-73
2021/01/06 07:05:55;;;;;;;7.78;5.08;;;1.80;99.90;;;;;;1968571;72;21028;-73
2021/01/06 07:08:20;;;;;;;11.03;5.40;;;1.80;99.90;;;;;;1973020;72;21505;-73
2021/01/06 07:10:46;;;;;;;7.37;5.25;;;1.70;99.90;;;;;;1970251;72;21602;-74
2021/01/06 07:13:12;;;;;;;6.17;4.35;;;1.70;99.90;;;;;;1972216;72;21053;-75
2021/01/06 07:15:38;;;;;;;8.70;4.80;;;1.70;99.90;;;;;;1964463;72;21055;-72
2021/01/06 07:18:05;;;;;;;7.90;5.15;;;1.80;99.90;;;;;;1978110;72;21124;-73
2021/01/06 07:20:31;;;;;;;9.40;5.30;;;1.80;99.90;;;;;;1985428;72;21050;-74
2021/01/06 07:22:57;;;;;;;6.90;5.03;;;1.80;99.90;;;;;;1973657;72;21072;-73
2021/01/06 07:25:23;;;;;;;9.95;5.15;;;1.80;99.90;;;;;;1970335;72;21137;-75
2021/01/06 07:27:49;;;;;;;9.63;4.97;;;1.70;99.90;;;;;;1972284;72;21117;-75
2021/01/06 07:30:15;;;;;;;7.35;5.42;;;1.80;99.90;;;;;;1973047;72;21068;-74
2021/01/06 07:32:43;;;;;;;6.70;4.58;;;1.80;99.90;;;;;;1969232;72;21024;-75
2021/01/06 07:35:09;;;;;;;7.15;4.85;;;1.90;99.90;;;;;;1964388;72;21452;-77
2021/01/06 07:37:36;;;;;;;11.57;5.55;;;1.90;99.90;;;;;;1974002;73;21109;-77
2021/01/06 07:40:02;;;;;;;10.82;5.97;;;1.80;99.90;;;;;;1970208;72;21067;-79
2021/01/06 07:42:28;;;;;;;10.78;4.92;;;1.80;99.90;;;;;;1976648;72;21059;-77
2021/01/06 07:44:54;;;;;;;11.18;5.33;;;1.90;99.90;;;;;;1977511;72;21144;-78
2021/01/06 07:47:20;;;;;;;9.20;5.35;;;2.00;99.90;;;;;;1974141;73;21055;-76
2021/01/06 07:49:46;;;;;;;7.58;5.37;;;1.90;99.90;;;;;;1971593;72;21023;-75
2021/01/06 07:52:12;;;;;;;8.78;5.47;;;1.90;99.90;;;;;;1972946;72;21070;-72
2021/01/06 07:54:39;;;;;;;11.78;5.45;;;1.90;99.90;;;;;;1967538;72;21491;-74
2021/01/06 07:57:05;;;;;;;7.47;4.90;;;1.90;99.90;;;;;;1979588;72;21455;-73
2021/01/06 07:59:31;;;;;;;12.15;4.92;;;1.90;99.90;;;;;;1974478;72;21568;-76
2021/01/06 08:01:58;;;;;;;7.83;4.72;;;1.90;99.90;;;;;;1983235;72;21164;-73
2021/01/06 08:04:24;;;;;;;12.03;4.90;;;1.90;99.90;;;;;;1975851;72;21119;-72
2021/01/06 08:06:51;;;;;;;7.15;4.40;;;1.80;99.90;;;;;;1968244;72;21027;-73
2021/01/06 08:09:17;;;;;;;5.60;4.40;;;1.80;99.90;;;;;;1981141;72;21095;-72
2021/01/06 08:11:45;;;;;;;10.05;4.58;;;1.80;99.90;;;;;;1969019;72;21581;-71
2021/01/06 08:14:11;;;;;;;9.30;4.15;;;1.80;99.90;;;;;;1987005;72;21511;-72
2021/01/06 08:16:37;;;;;;;4.90;4.15;;;1.90;99.90;;;;;;1973945;72;21612;-74
2021/01/06 08:19:03;;;;;;;6.97;4.33;;;1.90;99.90;;;;;;1971124;72;21113;-73
2021/01/06 08:21:29;;;;;;;8.58;4.83;;;1.90;99.90;;;;;;1979218;72;21047;-75
2021/01/06 08:23:58;;;;;;;12.70;4.80;;;1.80;99.90;;;;;;1977400;72;21197;-71
2021/01/06 08:26:23;;;;;;;6.40;3.75;;;1.90;99.90;;;;;;1977613;72;21458;-72
2021/01/06 08:28:49;;;;;;;5.58;4.17;;;1.90;99.90;;;;;;1973008;72;21128;-72
2021/01/06 08:31:15;;;;;;;7.47;4.60;;;1.90;99.90;;;;;;1984825;72;21046;-71
2021/01/06 08:33:41;;;;;;;9.45;5.00;;;1.90;99.90;;;;;;1970091;72;21044;-73
2021/01/06 08:36:07;;;;;;;6.72;4.12;;;1.90;99.90;;;;;;1973723;72;21121;-71
2021/01/06 08:38:34;;;;;;;7.17;4.37;;;1.90;99.90;;;;;;1973950;72;21106;-73
2021/01/06 08:41:00;;;;;;;10.70;4.83;;;1.80;99.90;;;;;;1973849;72;21125;-73
2021/01/06 08:43:26;;;;;;;7.97;5.12;;;1.90;99.90;;;;;;1962193;72;21103;-71
2021/01/06 08:45:52;;;;;;;5.40;3.98;;;1.80;99.90;;;;;;1973965;73;21121;-71
2021/01/06 08:48:18;;;;;;;6.37;4.25;;;1.90;99.90;;;;;;1970940;72;21116;-73
2021/01/06 08:50:45;;;;;;;9.05;4.97;;;1.90;99.90;;;;;;1977068;72;21106;-73
2021/01/06 08:53:11;;;;;;;8.90;4.08;;;2.00;99.90;;;;;;1970582;72;21035;-72
2021/01/06 08:55:37;;;;;;;8.38;5.42;;;2.00;99.90;;;;;;1977058;72;21086;-73
2021/01/06 08:58:03;;;;;;;6.80;4.37;;;1.90;99.90;;;;;;1971838;72;21117;-73
2021/01/06 09:00:29;;;;;;;5.85;4.75;;;1.90;99.90;;;;;;1972783;72;21044;-73
2021/01/06 09:02:55;;;;;;;5.25;4.05;;;1.90;99.90;;;;;;1985121;72;21051;-72
2021/01/06 09:05:21;;;;;;;8.45;4.42;;;2.00;99.90;;;;;;1971470;72;21132;-72
2021/01/06 09:07:47;;;;;;;7.75;4.72;;;2.10;99.90;;;;;;1984024;72;21483;-72
2021/01/06 09:10:14;;;;;;;6.85;4.60;;;2.10;99.90;;;;;;1971249;72;21512;-72
2021/01/06 09:12:40;;;;;;;6.65;4.62;;;2.10;99.90;;;;;;1972048;72;21537;-72
2021/01/06 09:15:06;;;;;;;7.80;4.55;;;2.10;99.90;;;;;;1977051;72;21133;-72
2021/01/06 09:17:32;;;;;;;10.72;4.05;;;2.20;99.90;;;;;;1970834;72;21109;-72
2021/01/06 09:19:58;;;;;;;8.25;4.72;;;2.20;99.90;;;;;;1968298;72;21054;-72
2021/01/06 09:22:24;;;;;;;5.53;4.17;;;2.10;99.90;;;;;;1971499;72;21059;-73
2021/01/06 09:24:50;;;;;;;9.08;4.50;;;2.10;99.90;;;;;;1971158;72;21170;-71
2021/01/06 09:27:17;;;;;;;6.65;4.53;;;2.10;99.90;;;;;;1972489;72;21122;-72
2021/01/06 09:29:43;;;;;;;7.87;4.80;;;2.10;99.90;;;;;;1980851;72;21028;-70
2021/01/06 09:32:09;;;;;;;7.12;4.37;;;2.10;99.90;;;;;;1978189;72;21490;-72
2021/01/06 09:34:35;;;;;;;7.87;4.65;;;2.20;99.90;;;;;;1978861;72;21463;-71
2021/01/06 09:37:01;;;;;;;6.25;4.12;;;2.20;99.90;;;;;;1970771;72;21508;-71
2021/01/06 09:39:27;;;;;;;6.17;4.00;;;2.30;99.90;;;;;;1973107;72;21124;-71
2021/01/06 09:41:53;;;;;;;5.92;4.00;;;2.30;99.90;;;;;;1984008;72;21067;-70
2021/01/06 09:44:19;;;;;;;6.05;4.03;;;2.30;99.90;;;;;;1966647;72;21055;-72
2021/01/06 09:46:45;;;;;;;6.53;3.72;;;2.30;99.90;;;;;;1977448;72;21084;-74
2021/01/06 09:49:12;;;;;;;4.95;3.70;;;2.30;99.90;;;;;;1974480;72;21085;-71
2021/01/06 09:51:38;;;;;;;5.10;4.12;;;2.30;99.90;;;;;;1974448;72;21084;-76
2021/01/06 09:54:04;;;;;;;6.67;3.98;;;2.30;99.90;;;;;;1974285;72;21103;-71
2021/01/06 09:56:30;;;;;;;7.58;3.92;;;2.30;99.90;;;;;;1973478;72;21475;-73
2021/01/06 09:58:56;;;;;;;6.45;3.65;;;2.20;99.90;;;;;;1978943;72;21585;-72
2021/01/06 10:01:22;;;;;;;8.68;3.95;;;2.30;99.90;;;;;;1980486;72;21067;-73
2021/01/06 10:03:49;;;;;;;5.25;4.00;;;2.30;99.90;;;;;;1971447;72;21088;-74
2021/01/06 10:06:15;;;;;;;4.50;3.50;;;2.30;99.90;;;;;;1974439;72;21063;-75
2021/01/06 10:08:41;;;;;;;5.83;4.17;;;2.40;99.90;;;;;;1969206;72;21055;-74
2021/01/06 10:11:07;;;;;;;9.55;4.28;;;2.40;99.90;;;;;;1971223;72;21142;-75
2021/01/06 10:13:34;;;;;;;6.05;4.60;;;2.40;99.90;;;;;;1990086;72;21046;-75
2021/01/06 10:16:00;;;;;;;7.12;3.62;;;2.40;99.90;;;;;;1975801;72;21062;-74
2021/01/06 10:18:26;;;;;;;5.85;4.12;;;2.30;99.90;;;;;;1974887;72;21071;-79
2021/01/06 10:20:52;;;;;;;7.92;4.58;;;2.40;99.90;;;;;;1973760;72;21103;-75
2021/01/06 10:23:18;;;;;;;4.53;3.58;;;2.40;99.90;;;;;;1975782;72;21035;-77
2021/01/06 10:25:45;;;;;;;7.90;4.20;;;2.40;99.90;;;;;;1985187;72;21466;-80
2021/01/06 10:28:11;;;;;;;6.03;3.75;;;2.40;99.90;;;;;;1972774;72;21054;-75
2021/01/06 10:30:38;;;;;;;7.67;3.60;;;2.40;99.90;;;;;;1973006;72;21562;-74
2021/01/06 10:33:04;;;;;;;6.47;3.60;;;2.20;99.90;;;;;;1971076;72;21499;-74
2021/01/06 10:35:30;;;;;;;6.12;4.05;;;2.30;99.90;;;;;;1974498;73;21428;-73
2021/01/06 10:37:57;;;;;;;5.22;3.52;;;2.30;99.90;;;;;;1978682;72;21094;-76
2021/01/06 10:40:25;;;;;;;8.88;4.33;;;2.30;99.90;;;;;;1975029;72;21059;-74
2021/01/06 10:42:51;;;;;;;5.67;3.92;;;2.20;99.90;;;;;;1975028;72;21162;-75
2021/01/06 10:45:17;;;;;;;5.95;3.80;;;2.20;99.90;;;;;;1973760;72;21482;-74
2021/01/06 10:47:43;;;;;;;4.47;3.65;;;2.20;99.90;;;;;;1974708;73;21460;-75
2021/01/06 10:50:09;;;;;;;6.45;4.70;;;2.20;99.90;;;;;;1974564;73;21483;-73
2021/01/06 10:52:36;;;;;;;5.85;3.83;;;2.20;99.90;;;;;;1976053;73;21072;-74
2021/01/06 10:55:02;;;;;;;4.00;3.05;;;2.30;99.90;;;;;;1976661;71;21004;-75
2021/01/06 10:57:28;;;;;;;6.42;4.05;;;2.20;99.90;;;;;;1977705;71;21108;-74
2021/01/06 10:59:54;;;;;;;3.60;3.17;;;2.00;99.90;;;;;;1980174;72;21122;-72
2021/01/06 11:02:20;;;;;;;6.17;3.62;;;2.10;99.90;;;;;;1973457;72;21084;-73
2021/01/06 11:04:46;;;;;;;7.53;3.60;;;2.10;99.90;;;;;;1979115;72;21078;-74
2021/01/06 11:07:12;;;;;;;4.70;3.60;;;2.20;99.90;;;;;;1971588;72;21136;-74
2021/01/06 11:09:38;;;;;;;6.53;3.65;;;2.10;99.90;;;;;;1967666;72;21474;-74
2021/01/06 11:12:05;;;;;;;4.25;3.47;;;2.20;99.90;;;;;;1987095;72;21447;-74
2021/01/06 11:14:31;;;;;;;5.80;3.40;;;2.10;99.90;;;;;;1967826;72;21427;-75
2021/01/06 11:16:57;;;;;;;4.50;3.67;;;2.10;99.90;;;;;;1977281;72;21055;-74
2021/01/06 11:19:23;;;;;;;6.80;4.42;;;2.20;99.90;;;;;;1973436;72;21044;-74
2021/01/06 11:21:49;;;;;;;5.25;3.60;;;2.20;99.90;;;;;;1977286;72;21063;-73
2021/01/06 11:24:16;;;;;;;6.08;4.00;;;2.20;99.90;;;;;;1983532;72;21533;-73
2021/01/06 11:26:43;;;;;;;6.28;4.05;;;2.10;99.90;;;;;;1968716;72;21458;-76
2021/01/06 11:29:09;;;;;;;7.80;5.08;;;2.10;99.90;;;;;;1978859;72;21055;-74
2021/01/06 11:31:35;;;;;;;6.37;4.15;;;2.00;99.90;;;;;;1979073;72;21054;-72
2021/01/06 11:34:01;;;;;;;7.97;4.95;;;2.00;99.90;;;;;;1976769;72;21016;-72
2021/01/06 11:36:27;;;;;;;18.67;9.60;;;2.10;99.90;;;;;;1974084;72;21054;-72
2021/01/06 11:38:53;;;;;;;7.45;4.72;;;2.10;99.90;;;;;;1975937;72;21052;-71
2021/01/06 11:41:19;;;;;;;6.03;4.28;;;2.00;99.90;;;;;;1977690;72;21063;-72
2021/01/06 11:43:46;;;;;;;17.37;4.30;;;2.10;99.90;;;;;;1974393;73;21067;-73
2021/01/06 11:46:12;;;;;;;5.15;3.95;;;2.00;99.90;;;;;;1974759;73;21124;-73
2021/01/06 11:48:38;;;;;;;6.17;4.25;;;1.90;99.90;;;;;;1967472;72;21172;-74
2021/01/06 11:51:04;;;;;;;6.95;4.83;;;1.80;99.90;;;;;;1974590;73;21146;-73
2021/01/06 11:53:30;;;;;;;6.10;4.65;;;1.70;99.90;;;;;;1973743;72;21109;-73
2021/01/06 11:55:56;;;;;;;5.85;4.53;;;1.70;99.90;;;;;;1975926;72;21063;-75
2021/01/06 11:58:22;;;;;;;6.12;4.37;;;1.70;99.90;;;;;;1976525;72;21032;-75
2021/01/06 12:00:49;;;;;;;5.30;3.87;;;1.70;99.90;;;;;;1961826;72;21077;-75
2021/01/06 12:03:15;;;;;;;5.47;4.05;;;1.90;99.90;;;;;;1971969;72;21120;-75
2021/01/06 12:05:41;;;;;;;6.53;4.72;;;1.80;99.90;;;;;;1969178;72;21117;-75
2021/01/06 12:08:09;;;;;;;10.60;6.05;;;1.70;99.90;;;;;;1973357;72;21050;-73
2021/01/06 12:10:35;;;;;;;8.10;4.30;;;1.70;99.90;;;;;;1980206;72;21066;-73
2021/01/06 12:13:01;;;;;;;6.28;5.20;;;1.80;99.90;;;;;;1974497;72;21475;-73
2021/01/06 12:15:27;;;;;;;7.25;5.28;;;1.80;99.90;;;;;;1974398;72;21117;-73
2021/01/06 12:17:53;;;;;;;8.68;5.10;;;1.70;99.90;;;;;;1967988;72;21113;-74
2021/01/06 12:20:19;;;;;;;8.35;5.15;;;1.70;99.90;;;;;;1977665;72;21063;-73
2021/01/06 12:22:46;;;;;;;8.03;5.03;;;1.80;99.90;;;;;;1968236;72;21145;-74
2021/01/06 12:25:12;;;;;;;6.50;4.45;;;1.90;99.90;;;;;;1984189;72;21040;-72
2021/01/06 12:27:38;;;;;;;7.10;4.50;;;2.00;99.90;;;;;;1980111;72;21090;-72
2021/01/06 12:30:04;;;;;;;6.85;4.87;;;2.00;99.90;;;;;;1978174;72;21070;-74
2021/01/06 12:32:30;;;;;;;7.25;4.50;;;2.00;99.90;;;;;;1980336;72;21471;-76
2021/01/06 12:34:56;;;;;;;4.33;3.83;;;2.00;99.90;;;;;;1972538;72;21463;-74
2021/01/06 12:37:22;;;;;;;6.95;4.45;;;2.10;99.90;;;;;;1972764;72;21491;-75
2021/01/06 12:39:48;;;;;;;9.03;4.65;;;2.20;99.90;;;;;;1976317;72;21099;-69
2021/01/06 12:42:15;;;;;;;6.55;4.25;;;2.10;99.90;;;;;;1974042;72;21035;-74
2021/01/06 12:44:43;;;;;;;8.78;4.95;;;2.20;99.90;;;;;;1974633;73;21128;-74
2021/01/06 12:47:08;;;;;;;8.23;4.85;;;2.20;99.90;;;;;;1974364;72;21554;-73